createdAt,value
2022-07-25T00:01:45.652Z,23.10
2022-07-25T00:04:14.343Z,23.10
2022-07-25T00:06:42.609Z,23.10
2022-07-25T00:09:10.054Z,23.10
2022-07-25T00:11:37.003Z,23.10
2022-07-25T00:14:04.816Z,23.10
2022-07-25T00:16:32.121Z,23.10
2022-07-25T00:18:59.600Z,23.10
2022-07-25T00:21:26.519Z,23.10
2022-07-25T00:23:53.276Z,23.20
2022-07-25T00:26:19.996Z,23.10
2022-07-25T00:28:46.701Z,23.10
2022-07-25T00:31:13.533Z,23.10
2022-07-25T00:33:41.230Z,23.10
2022-07-25T00:36:09.053Z,23.10
2022-07-25T00:38:36.192Z,23.20
2022-07-25T00:41:03.897Z,23.20
2022-07-25T00:43:30.901Z,23.10
2022-07-25T00:45:58.745Z,23.10
2022-07-25T00:48:27.391Z,23.10
2022-07-25T00:50:55.594Z,23.10
2022-07-25T00:53:23.899Z,23.10
2022-07-25T00:55:51.324Z,23.00
2022-07-25T00:58:18.881Z,23.00
2022-07-25T01:00:46.128Z,23.00
2022-07-25T01:03:13.120Z,22.90
2022-07-25T01:05:40.057Z,22.90
2022-07-25T01:08:07.456Z,22.90
2022-07-25T01:10:34.704Z,22.80
2022-07-25T01:13:01.514Z,22.80
2022-07-25T01:15:28.519Z,22.80
2022-07-25T01:17:55.521Z,22.70
2022-07-25T01:20:24.103Z,22.70
2022-07-25T01:22:51.457Z,22.70
2022-07-25T01:25:19.443Z,22.60
2022-07-25T01:27:52.730Z,22.60
2022-07-25T01:30:22.472Z,22.60
2022-07-25T01:32:49.305Z,22.60
2022-07-25T01:35:16.265Z,22.50
2022-07-25T01:37:45.472Z,22.50
2022-07-25T01:40:13.794Z,22.50
2022-07-25T01:42:40.686Z,22.50
2022-07-25T01:45:08.138Z,22.50
2022-07-25T01:47:34.927Z,22.50
2022-07-25T01:50:01.714Z,22.40
2022-07-25T01:52:28.438Z,22.40
2022-07-25T01:54:55.212Z,22.40
2022-07-25T01:57:23.357Z,22.40
2022-07-25T01:59:57.352Z,22.40
2022-07-25T02:02:24.055Z,22.30
2022-07-25T02:04:50.847Z,22.30
2022-07-25T02:07:17.682Z,22.30
2022-07-25T02:09:44.402Z,22.30
2022-07-25T02:12:11.292Z,22.20
2022-07-25T02:14:38.193Z,22.20
2022-07-25T02:17:05.108Z,22.20
2022-07-25T02:19:32.145Z,22.20
2022-07-25T02:21:59.029Z,22.20
2022-07-25T02:24:25.932Z,22.20
2022-07-25T02:26:52.676Z,22.10
2022-07-25T02:29:19.368Z,22.10
2022-07-25T02:31:49.003Z,22.10
2022-07-25T02:34:15.737Z,22.10
2022-07-25T02:36:42.429Z,22.00
2022-07-25T02:39:09.144Z,22.00
2022-07-25T02:41:35.907Z,21.90
2022-07-25T02:44:02.952Z,21.90
2022-07-25T02:46:29.784Z,21.90
2022-07-25T02:48:56.637Z,21.80
2022-07-25T02:51:23.496Z,21.80
2022-07-25T02:53:57.772Z,21.80
2022-07-25T02:56:26.317Z,21.80
2022-07-25T02:58:56.718Z,21.80
2022-07-25T03:01:23.519Z,21.80
2022-07-25T03:03:50.666Z,21.80
2022-07-25T03:06:18.277Z,21.80
2022-07-25T03:08:45.228Z,21.80
2022-07-25T03:11:13.694Z,21.70
2022-07-25T03:13:40.558Z,21.70
2022-07-25T03:16:07.818Z,21.70
2022-07-25T03:18:34.616Z,21.80
2022-07-25T03:21:01.426Z,21.80
2022-07-25T03:23:28.464Z,21.80
2022-07-25T03:25:56.090Z,21.80
2022-07-25T03:28:24.632Z,21.80
2022-07-25T03:30:52.132Z,21.80
2022-07-25T03:33:18.949Z,21.80
2022-07-25T03:35:45.785Z,21.80
2022-07-25T03:38:12.546Z,21.70
2022-07-25T03:40:39.564Z,21.70
2022-07-25T03:43:06.716Z,21.70
2022-07-25T03:45:33.563Z,21.70
2022-07-25T03:48:00.373Z,21.60
2022-07-25T03:50:27.170Z,21.60
2022-07-25T03:52:53.928Z,21.60
2022-07-25T03:55:20.703Z,21.60
2022-07-25T03:57:47.475Z,21.60
2022-07-25T04:00:15.573Z,21.60
2022-07-25T04:02:42.483Z,21.50
2022-07-25T04:05:10.152Z,21.50
2022-07-25T04:07:38.223Z,21.50
2022-07-25T04:10:06.907Z,21.50
2022-07-25T04:12:33.742Z,21.50
2022-07-25T04:15:00.542Z,21.50
2022-07-25T04:17:27.293Z,21.50
2022-07-25T04:19:54.107Z,21.50
2022-07-25T04:22:22.225Z,21.50
2022-07-25T04:24:48.996Z,21.60
2022-07-25T04:27:15.751Z,21.60
2022-07-25T04:29:42.498Z,21.60
2022-07-25T04:32:09.341Z,21.70
2022-07-25T04:34:36.104Z,21.70
2022-07-25T04:37:02.870Z,21.70
2022-07-25T04:39:29.608Z,21.70
2022-07-25T04:41:56.446Z,21.70
2022-07-25T04:44:23.272Z,21.80
2022-07-25T04:46:50.002Z,21.80
2022-07-25T04:49:16.854Z,21.80
2022-07-25T04:51:43.712Z,21.80
2022-07-25T04:54:10.567Z,21.90
2022-07-25T04:56:37.373Z,21.90
2022-07-25T04:59:06.867Z,22.10
2022-07-25T05:01:34.932Z,22.00
2022-07-25T05:04:02.144Z,22.10
2022-07-25T05:06:28.922Z,22.10
2022-07-25T05:08:55.813Z,22.20
2022-07-25T05:11:22.603Z,22.30
2022-07-25T05:13:49.406Z,22.40
2022-07-25T05:16:16.283Z,22.40
2022-07-25T05:18:43.163Z,22.50
2022-07-25T05:21:14.188Z,22.60
2022-07-25T05:23:41.177Z,22.60
2022-07-25T05:26:08.200Z,22.70
2022-07-25T05:28:35.144Z,22.80
2022-07-25T05:31:02.111Z,22.80
2022-07-25T05:33:28.913Z,22.80
2022-07-25T05:35:55.737Z,22.90
2022-07-25T05:38:22.507Z,23.00
2022-07-25T05:40:52.036Z,23.10
2022-07-25T05:43:19.659Z,23.20
2022-07-25T05:45:47.533Z,23.20
2022-07-25T05:48:15.165Z,23.30
2022-07-25T05:50:42.014Z,23.30
2022-07-25T05:53:08.766Z,23.40
2022-07-25T05:55:35.623Z,23.50
2022-07-25T05:58:07.554Z,23.50
2022-07-25T06:00:34.336Z,23.60
2022-07-25T06:03:01.206Z,23.70
2022-07-25T06:05:28.394Z,23.80
2022-07-25T06:07:55.332Z,23.80
2022-07-25T06:10:23.292Z,24.00
2022-07-25T06:12:50.096Z,24.00
2022-07-25T06:15:22.300Z,24.10
2022-07-25T06:17:49.952Z,24.10
2022-07-25T06:20:17.286Z,24.30
2022-07-25T06:22:44.088Z,24.40
2022-07-25T06:25:11.020Z,24.50
2022-07-25T06:27:38.602Z,24.60
2022-07-25T06:30:18.641Z,24.70
2022-07-25T06:32:47.317Z,24.70
2022-07-25T06:35:14.237Z,24.80
2022-07-25T06:37:41.416Z,24.90
2022-07-25T06:40:09.136Z,25.00
2022-07-25T06:42:40.308Z,25.00
2022-07-25T06:45:11.866Z,25.10
2022-07-25T06:47:40.348Z,25.10
2022-07-25T06:50:11.294Z,25.20
2022-07-25T06:52:39.915Z,25.30
2022-07-25T06:55:08.527Z,25.30
2022-07-25T06:57:36.337Z,25.30
2022-07-25T07:00:09.652Z,25.40
2022-07-25T07:02:49.809Z,25.60
2022-07-25T07:05:16.818Z,25.70
2022-07-25T07:07:47.556Z,25.70
2022-07-25T07:10:15.759Z,25.80
2022-07-25T07:12:42.810Z,25.90
2022-07-25T07:15:10.236Z,26.00
2022-07-25T07:17:37.647Z,26.10
2022-07-25T07:20:06.652Z,26.20
2022-07-25T07:22:43.054Z,26.40
2022-07-25T07:25:10.491Z,26.50
2022-07-25T07:27:38.739Z,26.60
2022-07-25T07:30:06.412Z,26.80
2022-07-25T07:32:34.398Z,26.80
2022-07-25T07:35:02.110Z,26.90
2022-07-25T07:37:36.607Z,26.90
2022-07-25T07:40:06.669Z,26.90
2022-07-25T07:42:42.846Z,27.00
2022-07-25T07:45:24.437Z,27.10
2022-07-25T07:47:53.568Z,27.10
2022-07-25T07:50:26.308Z,27.20
2022-07-25T07:52:55.392Z,27.20
2022-07-25T07:55:41.763Z,27.40
2022-07-25T07:58:09.255Z,27.50
2022-07-25T08:00:39.284Z,27.50
2022-07-25T08:03:09.296Z,27.60
2022-07-25T08:05:43.078Z,27.70
2022-07-25T08:08:12.846Z,27.80
2022-07-25T08:10:42.989Z,27.90
2022-07-25T08:13:21.342Z,27.90
2022-07-25T08:15:51.788Z,28.00
2022-07-25T08:18:20.777Z,28.10
2022-07-25T08:20:49.081Z,28.20
2022-07-25T08:23:18.001Z,28.30
2022-07-25T08:25:46.181Z,28.40
2022-07-25T08:28:14.651Z,28.50
2022-07-25T08:30:42.945Z,28.50
2022-07-25T08:33:13.979Z,28.50
2022-07-25T08:35:46.546Z,28.60
2022-07-25T08:38:13.670Z,28.70
2022-07-25T08:40:41.897Z,28.80
2022-07-25T08:43:13.094Z,28.90
2022-07-25T08:45:49.933Z,29.10
2022-07-25T08:48:23.943Z,29.20
2022-07-25T08:50:52.115Z,29.20
2022-07-25T08:53:37.159Z,29.30
2022-07-25T08:56:20.480Z,29.40
2022-07-25T08:58:49.799Z,29.50
2022-07-25T09:01:17.300Z,29.60
2022-07-25T09:03:45.025Z,29.80
2022-07-25T09:06:23.126Z,29.90
2022-07-25T09:08:57.826Z,30.00
2022-07-25T09:11:34.127Z,30.10
2022-07-25T09:14:09.158Z,30.20
2022-07-25T09:16:44.471Z,30.40
2022-07-25T09:19:20.481Z,30.40
2022-07-25T09:22:10.338Z,30.50
2022-07-25T09:24:44.799Z,30.60
2022-07-25T09:27:13.085Z,30.70
2022-07-25T09:29:42.743Z,30.70
2022-07-25T09:32:21.517Z,30.70
2022-07-25T09:34:50.908Z,30.80
2022-07-25T09:37:25.457Z,30.90
2022-07-25T09:39:52.919Z,30.90
2022-07-25T09:42:29.867Z,30.80
2022-07-25T09:45:05.752Z,30.80
2022-07-25T09:47:36.704Z,30.90
2022-07-25T09:50:06.604Z,31.00
2022-07-25T09:52:35.870Z,31.10
2022-07-25T09:55:06.502Z,31.30
2022-07-25T09:57:34.167Z,31.50
2022-07-25T10:00:02.231Z,31.60
2022-07-25T10:02:48.895Z,31.70
2022-07-25T10:05:40.044Z,31.70
2022-07-25T10:08:09.005Z,31.80
2022-07-25T10:10:43.495Z,31.80
2022-07-25T10:13:15.390Z,32.00
2022-07-25T10:15:47.821Z,32.10
2022-07-25T10:18:16.325Z,32.30
2022-07-25T10:20:45.345Z,32.40
2022-07-25T10:23:19.989Z,32.40
2022-07-25T10:25:49.126Z,32.50
2022-07-25T10:28:20.269Z,32.70
2022-07-25T10:30:47.739Z,32.70
2022-07-25T10:33:19.369Z,32.70
2022-07-25T10:35:46.140Z,32.90
2022-07-25T10:38:13.309Z,33.00
2022-07-25T10:40:44.049Z,33.10
2022-07-25T10:43:22.395Z,33.10
2022-07-25T10:45:52.303Z,33.20
2022-07-25T10:48:27.234Z,33.20
2022-07-25T10:51:03.779Z,33.30
2022-07-25T10:53:32.263Z,33.20
2022-07-25T10:56:10.238Z,33.40
2022-07-25T10:58:46.077Z,33.60
2022-07-25T11:01:16.308Z,33.70
2022-07-25T11:03:47.297Z,33.80
2022-07-25T11:06:15.573Z,33.80
2022-07-25T11:08:44.097Z,33.90
2022-07-25T11:11:12.304Z,34.00
2022-07-25T11:13:42.694Z,34.20
2022-07-25T11:16:10.500Z,34.10
2022-07-25T11:18:40.345Z,34.20
2022-07-25T11:21:08.993Z,34.30
2022-07-25T11:23:36.819Z,34.50
2022-07-25T11:26:14.660Z,34.50
2022-07-25T11:28:46.298Z,34.50
2022-07-25T11:31:15.803Z,34.50
2022-07-25T11:33:47.971Z,34.40
2022-07-25T11:36:16.951Z,34.40
2022-07-25T11:38:51.016Z,34.60
2022-07-25T11:41:29.629Z,34.80
2022-07-25T11:43:57.458Z,35.00
2022-07-25T11:46:24.357Z,35.20
2022-07-25T11:48:51.409Z,35.40
2022-07-25T11:51:19.650Z,35.40
2022-07-25T11:53:49.795Z,35.20
2022-07-25T11:56:41.465Z,35.10
2022-07-25T11:59:07.757Z,34.80
2022-07-25T12:01:37.538Z,34.50
2022-07-25T12:04:16.050Z,34.40
2022-07-25T12:06:45.720Z,34.30
2022-07-25T12:09:21.368Z,34.20
2022-07-25T12:11:50.445Z,34.20
2022-07-25T12:14:17.866Z,34.30
2022-07-25T12:16:45.128Z,34.50
2022-07-25T12:19:20.578Z,34.60
2022-07-25T12:21:49.243Z,34.80
2022-07-25T12:24:16.429Z,34.90
2022-07-25T12:26:43.444Z,35.00
2022-07-25T12:29:10.820Z,35.00
2022-07-25T12:31:39.160Z,35.00
2022-07-25T12:34:06.987Z,35.00
2022-07-25T12:36:38.393Z,35.10
2022-07-25T12:39:06.358Z,35.20
2022-07-25T12:41:34.159Z,35.30
2022-07-25T12:44:02.773Z,35.30
2022-07-25T12:46:30.289Z,35.30
2022-07-25T12:48:57.346Z,35.20
2022-07-25T12:51:24.793Z,35.20
2022-07-25T12:53:51.513Z,35.10
2022-07-25T12:56:18.757Z,35.10
2022-07-25T12:58:45.795Z,35.00
2022-07-25T13:01:14.044Z,34.90
2022-07-25T13:03:40.924Z,34.70
2022-07-25T13:06:08.687Z,34.50
2022-07-25T13:08:37.992Z,34.40
2022-07-25T13:11:05.167Z,34.30
2022-07-25T13:13:32.047Z,34.20
2022-07-25T13:16:00.165Z,34.20
2022-07-25T13:18:29.109Z,34.20
2022-07-25T13:20:56.601Z,34.30
2022-07-25T13:23:24.676Z,34.40
2022-07-25T13:25:52.681Z,34.30
2022-07-25T13:28:19.691Z,34.20
2022-07-25T13:30:48.991Z,34.10
2022-07-25T13:33:16.863Z,33.90
2022-07-25T13:35:44.419Z,33.70
2022-07-25T13:38:12.351Z,33.60
2022-07-25T13:40:44.875Z,33.40
2022-07-25T13:43:13.897Z,33.40
2022-07-25T13:45:43.987Z,33.40
2022-07-25T13:48:28.856Z,33.60
2022-07-25T13:50:58.312Z,33.70
2022-07-25T13:53:29.949Z,33.90
2022-07-25T13:55:59.117Z,34.00
2022-07-25T13:58:26.550Z,34.20
2022-07-25T14:00:54.243Z,34.30
2022-07-25T14:03:22.460Z,34.50
2022-07-25T14:05:49.700Z,34.60
2022-07-25T14:08:17.078Z,34.60
2022-07-25T14:10:44.231Z,34.60
2022-07-25T14:13:13.128Z,34.70
2022-07-25T14:15:40.815Z,34.80
2022-07-25T14:18:07.946Z,34.80
2022-07-25T14:20:35.741Z,34.90
2022-07-25T14:23:03.171Z,35.00
2022-07-25T14:25:30.327Z,35.00
2022-07-25T14:27:59.626Z,35.00
2022-07-25T14:30:27.360Z,35.00
2022-07-25T14:32:55.642Z,35.00
2022-07-25T14:35:23.182Z,34.90
2022-07-25T14:37:51.029Z,34.80
2022-07-25T14:40:18.698Z,34.80
2022-07-25T14:42:46.001Z,34.70
2022-07-25T14:45:13.561Z,34.70
2022-07-25T14:47:42.598Z,34.60
2022-07-25T14:50:11.163Z,34.60
2022-07-25T14:52:39.436Z,34.60
2022-07-25T14:55:07.458Z,34.50
2022-07-25T14:57:34.669Z,34.50
2022-07-25T15:00:04.914Z,34.40
2022-07-25T15:02:32.681Z,34.30
2022-07-25T15:04:59.654Z,34.30
2022-07-25T15:07:26.627Z,34.30
2022-07-25T15:09:53.625Z,34.30
2022-07-25T15:12:21.144Z,34.30
2022-07-25T15:14:48.319Z,34.30
2022-07-25T15:17:15.117Z,34.40
2022-07-25T15:19:41.965Z,34.50
2022-07-25T15:22:09.137Z,34.50
2022-07-25T15:25:04.414Z,34.60
2022-07-25T15:27:22.878Z,34.60
2022-07-25T15:29:50.263Z,34.80
2022-07-25T15:32:17.617Z,34.70
2022-07-25T15:34:45.443Z,34.70
2022-07-25T15:37:12.601Z,34.70
2022-07-25T15:39:39.610Z,34.70
2022-07-25T15:42:06.491Z,34.70
2022-07-25T15:44:33.526Z,34.70
2022-07-25T15:47:00.476Z,34.70
2022-07-25T15:49:27.355Z,34.70
2022-07-25T15:51:56.308Z,34.60
2022-07-25T15:54:26.386Z,34.50
2022-07-25T15:56:56.615Z,34.40
2022-07-25T15:59:24.008Z,34.30
2022-07-25T16:01:51.802Z,34.20
2022-07-25T16:04:19.581Z,34.10
2022-07-25T16:06:47.158Z,34.00
2022-07-25T16:09:16.352Z,33.90
2022-07-25T16:11:43.698Z,33.90
2022-07-25T16:14:11.538Z,33.80
2022-07-25T16:16:39.726Z,33.80
2022-07-25T16:19:08.876Z,33.70
2022-07-25T16:21:36.042Z,33.60
2022-07-25T16:24:04.639Z,33.60
2022-07-25T16:26:31.649Z,33.60
2022-07-25T16:28:58.766Z,33.50
2022-07-25T16:31:26.683Z,33.40
2022-07-25T16:33:53.638Z,33.30
2022-07-25T16:36:20.554Z,33.30
2022-07-25T16:38:49.375Z,33.20
2022-07-25T16:41:16.328Z,33.10
2022-07-25T16:43:44.403Z,33.10
2022-07-25T16:46:11.958Z,33.00
2022-07-25T16:48:39.329Z,33.10
2022-07-25T16:51:07.192Z,33.00
2022-07-25T16:53:35.954Z,32.90
2022-07-25T16:56:04.483Z,32.60
2022-07-25T16:58:31.966Z,32.40
2022-07-25T17:00:59.017Z,32.20
2022-07-25T17:03:26.192Z,32.10
2022-07-25T17:05:54.032Z,31.90
2022-07-25T17:08:20.878Z,31.80
2022-07-25T17:10:48.815Z,31.60
2022-07-25T17:13:15.742Z,31.50
2022-07-25T17:15:44.045Z,31.40
2022-07-25T17:18:11.156Z,31.30
2022-07-25T17:20:38.060Z,31.20
2022-07-25T17:23:04.834Z,31.10
2022-07-25T17:25:31.793Z,31.00
2022-07-25T17:27:58.727Z,30.90
2022-07-25T17:30:25.961Z,30.80
2022-07-25T17:32:53.371Z,30.70
2022-07-25T17:35:20.567Z,30.60
2022-07-25T17:37:47.427Z,30.50
2022-07-25T17:40:14.268Z,30.30
2022-07-25T17:42:45.124Z,30.20
2022-07-25T17:45:12.538Z,30.10
2022-07-25T17:47:39.727Z,30.10
2022-07-25T17:50:06.888Z,30.00
2022-07-25T17:52:33.693Z,29.90
2022-07-25T17:55:00.582Z,29.80
2022-07-25T17:57:28.218Z,29.70
2022-07-25T17:59:55.046Z,29.60
2022-07-25T18:02:21.845Z,29.50
2022-07-25T18:04:48.721Z,29.20
2022-07-25T18:07:15.788Z,29.40
2022-07-25T18:09:42.669Z,29.30
2022-07-25T18:12:09.476Z,29.30
2022-07-25T18:14:36.383Z,29.20
2022-07-25T18:17:03.527Z,29.20
2022-07-25T18:19:30.381Z,29.10
2022-07-25T18:21:57.130Z,29.00
2022-07-25T18:24:29.089Z,29.00
2022-07-25T18:26:59.144Z,28.90
2022-07-25T18:29:26.224Z,28.80
2022-07-25T18:31:52.966Z,28.70
2022-07-25T18:34:19.782Z,28.60
2022-07-25T18:36:46.671Z,28.50
2022-07-25T18:39:13.910Z,28.40
2022-07-25T18:41:40.615Z,28.30
2022-07-25T18:44:07.821Z,28.20
2022-07-25T18:46:35.027Z,28.20
2022-07-25T18:49:04.194Z,28.00
2022-07-25T18:51:31.095Z,28.00
2022-07-25T18:53:57.902Z,27.90
2022-07-25T18:56:25.122Z,27.80
2022-07-25T18:58:52.825Z,27.80
2022-07-25T19:01:20.410Z,27.70
2022-07-25T19:03:47.571Z,27.70
2022-07-25T19:06:15.027Z,27.60
2022-07-25T19:08:44.164Z,27.50
2022-07-25T19:11:11.165Z,27.50
2022-07-25T19:13:49.562Z,27.40
2022-07-25T19:16:19.012Z,27.40
2022-07-25T19:18:46.908Z,27.40
2022-07-25T19:21:14.344Z,27.40
2022-07-25T19:23:41.207Z,27.30
2022-07-25T19:26:08.136Z,27.30
2022-07-25T19:28:35.982Z,27.20
2022-07-25T19:31:04.270Z,27.20
2022-07-25T19:33:35.963Z,27.10
2022-07-25T19:36:04.348Z,27.10
2022-07-25T19:38:31.583Z,27.00
2022-07-25T19:40:58.985Z,26.90
2022-07-25T19:43:25.863Z,26.90
2022-07-25T19:45:52.655Z,26.90
2022-07-25T19:48:23.605Z,26.90
2022-07-25T19:50:52.051Z,26.90
2022-07-25T19:53:19.133Z,26.90
2022-07-25T19:55:46.010Z,26.90
2022-07-25T19:58:12.960Z,26.90
2022-07-25T20:00:39.909Z,26.90
2022-07-25T20:03:06.939Z,26.90
2022-07-25T20:05:34.206Z,26.90
2022-07-25T20:08:01.142Z,26.90
2022-07-25T20:10:28.333Z,26.90
2022-07-25T20:12:58.231Z,26.80
2022-07-25T20:15:29.763Z,26.80
2022-07-25T20:17:56.976Z,26.70
2022-07-25T20:20:24.252Z,26.70
2022-07-25T20:22:52.158Z,26.60
2022-07-25T20:25:20.232Z,26.60
2022-07-25T20:27:50.061Z,26.50
2022-07-25T20:30:17.307Z,26.40
2022-07-25T20:32:44.471Z,26.40
2022-07-25T20:35:11.479Z,26.30
2022-07-25T20:37:38.224Z,26.30
2022-07-25T20:40:06.774Z,26.30
2022-07-25T20:42:37.434Z,26.20
2022-07-25T20:45:05.854Z,26.20
2022-07-25T20:47:32.687Z,26.20
2022-07-25T20:49:59.689Z,26.20
2022-07-25T20:52:28.083Z,26.20
2022-07-25T20:54:54.804Z,26.20
2022-07-25T20:57:22.464Z,26.20
2022-07-25T20:59:49.282Z,26.20
2022-07-25T21:02:17.403Z,26.10
2022-07-25T21:04:44.842Z,26.30
2022-07-25T21:07:12.388Z,26.20
2022-07-25T21:09:40.373Z,26.10
2022-07-25T21:12:07.579Z,26.10
2022-07-25T21:14:34.708Z,26.10
2022-07-25T21:17:01.672Z,26.10
2022-07-25T21:19:29.759Z,26.10
2022-07-25T21:21:56.956Z,26.10
2022-07-25T21:24:24.037Z,26.10
2022-07-25T21:26:51.596Z,26.10
2022-07-25T21:29:18.391Z,26.00
2022-07-25T21:31:45.545Z,25.90
2022-07-25T21:34:12.277Z,25.80
2022-07-25T21:36:39.097Z,25.80
2022-07-25T21:39:06.043Z,25.70
2022-07-25T21:41:32.948Z,25.70
2022-07-25T21:44:00.640Z,25.70
2022-07-25T21:46:27.667Z,25.60
2022-07-25T21:49:13.812Z,25.60
2022-07-25T21:51:41.338Z,25.60
2022-07-25T21:54:09.770Z,25.60
2022-07-25T21:56:36.550Z,25.60
2022-07-25T21:59:03.487Z,25.60
2022-07-25T22:01:30.380Z,25.60
2022-07-25T22:03:57.322Z,25.50
2022-07-25T22:06:24.086Z,25.50
2022-07-25T22:08:50.987Z,25.50
2022-07-25T22:11:38.382Z,25.40
2022-07-25T22:14:04.439Z,25.30
2022-07-25T22:16:31.321Z,25.30
2022-07-25T22:18:58.245Z,25.30
2022-07-25T22:21:25.019Z,25.20
2022-07-25T22:23:51.711Z,25.20
2022-07-25T22:26:20.220Z,25.20
2022-07-25T22:28:48.204Z,25.10
2022-07-25T22:31:15.216Z,25.10
2022-07-25T22:33:42.353Z,25.10
2022-07-25T22:36:09.481Z,25.10
2022-07-25T22:38:36.599Z,25.10
2022-07-25T22:41:03.454Z,25.00
2022-07-25T22:43:53.141Z,25.00
2022-07-25T22:46:16.995Z,25.00
2022-07-25T22:48:43.860Z,24.90
2022-07-25T22:51:10.617Z,24.90
2022-07-25T22:53:37.436Z,24.90
2022-07-25T22:56:04.467Z,24.90
2022-07-25T22:58:31.215Z,24.90
2022-07-25T23:00:57.909Z,24.80
2022-07-25T23:03:24.724Z,24.80
2022-07-25T23:05:57.457Z,24.80
2022-07-25T23:08:24.254Z,24.70
2022-07-25T23:10:51.000Z,24.70
2022-07-25T23:13:17.728Z,24.70
2022-07-25T23:15:50.121Z,24.70
2022-07-25T23:18:18.448Z,24.60
2022-07-25T23:20:45.136Z,24.60
2022-07-25T23:23:12.966Z,24.50
2022-07-25T23:25:39.919Z,24.50
2022-07-25T23:28:06.933Z,24.40
2022-07-25T23:30:38.200Z,24.30
2022-07-25T23:33:07.786Z,24.30
2022-07-25T23:35:35.147Z,24.30
2022-07-25T23:38:02.493Z,24.20
2022-07-25T23:40:29.668Z,24.20
2022-07-25T23:42:56.480Z,24.30
2022-07-25T23:45:26.354Z,24.30
2022-07-25T23:47:55.524Z,24.20
2022-07-25T23:50:22.721Z,24.20
2022-07-25T23:52:49.547Z,24.20
2022-07-25T23:55:16.318Z,24.20
2022-07-25T23:57:43.791Z,24.10
